Warren, Connecticut
Current Conditions -  °F | °C
As of 8:50 AM on Thursday 23 Oct 2014 (Local Time) from KOXC Reporting Station
Overcast Overcast  
Wind Chill: 50°   Ceiling: 1500
Heat Index: 50°   Visibility: 10mi
Dew Point: 43°   Wind: 20mph
Humidity: 76%   Direction: 20°NNE
Pressure: 29.67"   Gusts: 35mph
Location:  41.6879°N, 73.3378°W
Report Text: KOXC 231250Z 02017G30KT 10SM OVC015 10/06 A2967
Loading
Personal Weather Stations






























Interactive Weather Map
Tropical Storm Tracking
New forecast layout! Learn more

10-Day Weather Forecast

Advertisements
Track Severe Weather on mobile